Rocky Branch, Louisiana
Current Conditions -  °F | °C
As of 1:53 AM on Tuesday 21 Oct 2014 (Local Time) from KMLU Reporting Station
Clear Clear  
Wind Chill: 56°   Ceiling: Unl
Heat Index: 56°   Visibility: 10mi
Dew Point: 55°   Wind: 0mph
Humidity: 97%   Direction: NA
Pressure: 30.04"   Gusts: NA
Location:  32.7394°N, 92.2308°W
Report Text: KMLU 210653Z AUTO 00000KT 10SM CLR 13/13 A3004 RMK AO2 SLP173 T01330128
Loading
Personal Weather Stations






























Interactive Weather Map
Tropical Storm Tracking
New forecast layout! Learn more

10-Day Weather Forecast

Advertisements
Track Severe Weather on mobile